createdAt,value
2023-03-17T00:03:45.709Z,6.10
2023-03-17T00:09:47.565Z,6.10
2023-03-17T00:15:55.778Z,6.20
2023-03-17T00:21:59.014Z,6.30
2023-03-17T00:28:03.277Z,6.20
2023-03-17T00:34:05.963Z,6.10
2023-03-17T00:40:32.835Z,6.10
2023-03-17T00:46:36.228Z,6.00
2023-03-17T00:52:38.925Z,6.00
2023-03-17T00:58:41.115Z,6.00
2023-03-17T01:04:50.008Z,6.00
2023-03-17T01:10:57.825Z,6.00
2023-03-17T01:17:00.039Z,6.10
2023-03-17T01:23:02.456Z,6.10
2023-03-17T01:29:06.518Z,6.10
2023-03-17T01:35:08.584Z,6.10
2023-03-17T01:41:10.621Z,6.20
2023-03-17T01:47:12.414Z,6.20
2023-03-17T01:53:16.418Z,6.20
2023-03-17T01:59:23.893Z,6.10
2023-03-17T02:05:28.511Z,6.00
2023-03-17T02:11:30.780Z,5.90
2023-03-17T02:17:32.724Z,5.90
2023-03-17T02:23:34.710Z,6.00
2023-03-17T02:29:37.952Z,5.90
2023-03-17T02:35:40.845Z,5.90
2023-03-17T02:41:42.626Z,6.00
2023-03-17T02:47:44.485Z,5.80
2023-03-17T02:53:46.402Z,5.60
2023-03-17T02:59:48.414Z,5.70
2023-03-17T03:05:50.990Z,5.80
2023-03-17T03:11:52.817Z,5.70
2023-03-17T03:17:54.612Z,5.90
2023-03-17T03:23:56.473Z,6.10
2023-03-17T03:29:58.270Z,6.20
2023-03-17T03:36:00.552Z,6.20
2023-03-17T03:42:02.333Z,6.20
2023-03-17T03:48:04.268Z,6.30
2023-03-17T03:54:06.441Z,6.20
2023-03-17T04:00:09.440Z,6.10
2023-03-17T04:06:11.356Z,6.20
2023-03-17T04:12:13.162Z,6.00
2023-03-17T04:18:15.191Z,5.70
2023-03-17T04:24:17.456Z,5.50
2023-03-17T04:30:24.015Z,5.40
2023-03-17T04:36:26.118Z,5.30
2023-03-17T04:42:27.902Z,5.40
2023-03-17T04:48:29.848Z,5.70
2023-03-17T04:54:31.727Z,5.70
2023-03-17T05:00:38.694Z,5.60
2023-03-17T05:06:40.807Z,5.50
2023-03-17T05:12:47.843Z,5.60
2023-03-17T05:18:49.683Z,5.60
2023-03-17T05:24:51.436Z,5.60
2023-03-17T05:30:54.384Z,5.60
2023-03-17T05:36:56.152Z,5.50
2023-03-17T05:42:58.956Z,5.70
2023-03-17T05:49:00.868Z,5.80
2023-03-17T05:55:03.064Z,5.70
2023-03-17T06:01:05.959Z,5.80
2023-03-17T06:07:09.531Z,5.80
2023-03-17T06:13:11.802Z,5.90
2023-03-17T06:19:14.108Z,5.90
2023-03-17T06:25:16.168Z,6.00
2023-03-17T06:31:18.129Z,6.20
2023-03-17T06:37:21.268Z,6.30
2023-03-17T06:43:24.962Z,6.50
2023-03-17T06:49:27.120Z,6.60
2023-03-17T06:55:29.568Z,6.70
2023-03-17T07:01:32.819Z,6.90
2023-03-17T07:07:35.683Z,6.90
2023-03-17T07:13:45.456Z,6.80
2023-03-17T07:19:47.341Z,7.10
2023-03-17T07:25:49.670Z,7.30
2023-03-17T07:31:51.817Z,7.30
2023-03-17T07:37:53.765Z,7.30
2023-03-17T07:43:56.267Z,7.50
2023-03-17T07:49:58.084Z,7.70
2023-03-17T07:56:02.136Z,7.90
2023-03-17T08:02:07.531Z,8.00
2023-03-17T08:08:11.101Z,8.20
2023-03-17T08:14:13.343Z,8.60
2023-03-17T08:20:15.293Z,9.10
2023-03-17T08:26:18.800Z,9.10
2023-03-17T08:32:22.628Z,9.10
2023-03-17T08:38:24.597Z,9.20
2023-03-17T08:44:26.662Z,9.20
2023-03-17T08:50:29.866Z,9.50
2023-03-17T08:56:32.160Z,9.60
2023-03-17T09:02:34.061Z,9.80
2023-03-17T09:08:40.148Z,9.80
2023-03-17T09:14:44.171Z,10.00
2023-03-17T09:20:46.855Z,10.00
2023-03-17T09:26:48.788Z,10.10
2023-03-17T09:32:50.695Z,10.20
2023-03-17T09:38:52.597Z,10.20
2023-03-17T09:45:03.899Z,10.30
2023-03-17T09:51:12.943Z,10.80
2023-03-17T09:57:18.347Z,10.90
2023-03-17T10:03:21.080Z,11.10
2023-03-17T10:09:32.040Z,11.40
2023-03-17T10:15:41.340Z,11.80
2023-03-17T10:21:54.130Z,11.90
2023-03-17T10:28:12.305Z,12.20
2023-03-17T10:34:16.022Z,12.50
2023-03-17T10:40:30.465Z,12.80
2023-03-17T10:46:33.572Z,13.00
2023-03-17T10:52:40.993Z,13.20
2023-03-17T10:58:52.042Z,13.30
2023-03-17T11:05:23.750Z,13.50
2023-03-17T11:11:30.571Z,13.80
2023-03-17T11:17:42.306Z,13.70
2023-03-17T11:23:47.692Z,13.80
2023-03-17T11:30:12.847Z,14.20
2023-03-17T11:36:36.225Z,14.60
2023-03-17T11:43:04.200Z,14.70
2023-03-17T11:49:27.663Z,14.90
2023-03-17T11:55:41.817Z,15.00
2023-03-17T12:02:17.711Z,15.10
2023-03-17T12:08:50.882Z,15.50
2023-03-17T12:14:54.536Z,15.80
2023-03-17T12:21:23.988Z,15.80
2023-03-17T12:27:59.727Z,15.90
2023-03-17T12:34:17.084Z,15.90
2023-03-17T12:40:35.625Z,15.80
2023-03-17T12:47:12.461Z,15.70
2023-03-17T12:53:31.342Z,15.70
2023-03-17T12:59:34.290Z,16.00
2023-03-17T13:05:37.532Z,16.60
2023-03-17T13:11:42.674Z,16.70
2023-03-17T13:17:44.686Z,16.70
2023-03-17T13:23:53.605Z,16.50
2023-03-17T13:29:55.365Z,16.60
2023-03-17T13:36:06.162Z,16.40
2023-03-17T13:42:36.281Z,16.20
2023-03-17T13:48:40.430Z,16.10
2023-03-17T13:55:00.842Z,16.30
2023-03-17T14:01:12.728Z,16.40
2023-03-17T14:07:18.855Z,16.30
2023-03-17T14:13:24.217Z,16.20
2023-03-17T14:19:28.415Z,16.10
2023-03-17T14:25:36.205Z,16.10
2023-03-17T14:31:38.510Z,15.70
2023-03-17T14:37:40.519Z,15.50
2023-03-17T14:43:52.451Z,15.50
2023-03-17T14:49:54.542Z,15.30
2023-03-17T14:55:57.273Z,15.20
2023-03-17T15:02:16.918Z,15.10
2023-03-17T15:08:41.467Z,14.90
2023-03-17T15:14:46.122Z,14.70
2023-03-17T15:20:47.938Z,14.70
2023-03-17T15:26:49.730Z,14.50
2023-03-17T15:33:00.927Z,14.40
2023-03-17T15:39:03.599Z,14.20
2023-03-17T15:45:06.736Z,14.10
2023-03-17T15:51:10.979Z,14.00
2023-03-17T15:57:13.526Z,14.00
2023-03-17T16:03:33.883Z,14.00
2023-03-17T16:09:36.022Z,13.90
2023-03-17T16:15:41.113Z,13.80
2023-03-17T16:21:43.374Z,13.80
2023-03-17T16:27:45.898Z,13.70
2023-03-17T16:33:50.453Z,13.60
2023-03-17T16:39:52.494Z,13.50
2023-03-17T16:45:58.000Z,13.30
2023-03-17T16:52:00.867Z,13.20
2023-03-17T16:58:24.542Z,13.20
2023-03-17T17:04:26.776Z,13.10
2023-03-17T17:10:31.182Z,13.00
2023-03-17T17:16:39.956Z,12.90
2023-03-17T17:22:42.255Z,12.90
2023-03-17T17:28:44.994Z,12.80
2023-03-17T17:34:46.776Z,12.80
2023-03-17T17:40:49.392Z,12.70
2023-03-17T17:46:51.530Z,12.60
2023-03-17T17:52:53.986Z,12.60
2023-03-17T17:58:56.094Z,12.60
2023-03-17T18:04:58.410Z,12.50
2023-03-17T18:11:00.256Z,12.40
2023-03-17T18:17:02.100Z,12.40
2023-03-17T18:23:03.913Z,12.40
2023-03-17T18:29:05.774Z,12.40
2023-03-17T18:35:12.356Z,12.30
2023-03-17T18:41:14.614Z,12.20
2023-03-17T18:47:16.787Z,12.30
2023-03-17T18:53:18.572Z,12.10
2023-03-17T18:59:20.570Z,12.10
2023-03-17T19:05:22.766Z,12.10
2023-03-17T19:11:26.271Z,12.10
2023-03-17T19:17:28.458Z,12.00
2023-03-17T19:23:32.340Z,11.90
2023-03-17T19:29:34.246Z,12.00
2023-03-17T19:35:36.260Z,11.90
2023-03-17T19:41:38.210Z,11.90
2023-03-17T19:47:41.211Z,11.90
2023-03-17T19:53:44.097Z,11.80
2023-03-17T19:59:46.042Z,11.60
2023-03-17T20:05:47.845Z,11.60
2023-03-17T20:11:50.132Z,11.50
2023-03-17T20:17:52.065Z,11.50
2023-03-17T20:23:53.908Z,11.50
2023-03-17T20:29:56.942Z,11.50
2023-03-17T20:35:58.834Z,11.50
2023-03-17T20:42:02.093Z,11.50
2023-03-17T20:48:06.120Z,11.40
2023-03-17T20:54:08.894Z,11.40
2023-03-17T21:00:18.503Z,11.40
2023-03-17T21:06:20.805Z,11.30
2023-03-17T21:12:23.793Z,11.30
2023-03-17T21:18:25.822Z,11.40
2023-03-17T21:24:33.749Z,11.50
2023-03-17T21:30:37.052Z,11.50
2023-03-17T21:36:38.787Z,11.50
2023-03-17T21:42:40.920Z,11.50
2023-03-17T21:48:44.006Z,11.70
2023-03-17T21:54:45.752Z,11.60
2023-03-17T22:00:49.221Z,11.70
2023-03-17T22:06:52.141Z,11.80
2023-03-17T22:12:53.966Z,11.90
2023-03-17T22:18:55.990Z,12.10
2023-03-17T22:24:57.778Z,11.90
2023-03-17T22:30:59.857Z,12.00
2023-03-17T22:37:01.679Z,12.00
2023-03-17T22:43:03.902Z,12.00
2023-03-17T22:49:06.082Z,12.10
2023-03-17T22:55:09.192Z,12.10
2023-03-17T23:01:14.252Z,12.10
2023-03-17T23:07:16.598Z,12.10
2023-03-17T23:13:20.149Z,12.10
2023-03-17T23:19:22.268Z,12.00
2023-03-17T23:25:24.637Z,12.00
2023-03-17T23:31:28.142Z,12.00
2023-03-17T23:37:30.067Z,12.10
2023-03-17T23:43:32.052Z,12.10
2023-03-17T23:49:34.117Z,12.00
2023-03-17T23:55:36.487Z,11.90
